Time;durP1;ratioP1;P1;durP2;ratioP2;P2;SDS_P1;SDS_P2;PMS_P1;PMS_P2;Temp;Humidity;BMP_temperature;BMP_pressure;BME280_temperature;BME280_humidity;BME280_pressure;Samples;Min_cycle;Max_cycle;Signal;HPM_P1;HPM_P2
2021/03/28 00:01:07;;;;;;;10.32;4.00;;;3.00;99.90;;;;;;4976299;28;20046;-64
2021/03/28 00:03:36;;;;;;;6.78;4.03;;;2.90;99.90;;;;;;4976388;28;20077;-65
2021/03/28 00:06:14;;;;;;;12.68;4.43;;;2.90;99.90;;;;;;4975781;28;20080;-65
2021/03/28 00:08:47;;;;;;;11.05;4.20;;;2.90;99.90;;;;;;4976283;28;20034;-65
2021/03/28 00:11:19;;;;;;;9.52;4.00;;;3.00;99.90;;;;;;4978830;28;20042;-65
2021/03/28 00:13:54;;;;;;;10.40;4.00;;;2.90;99.90;;;;;;4978172;28;20038;-65
2021/03/28 00:16:25;;;;;;;;;;;2.90;99.90;;;;;;4976451;28;20027;-65
2021/03/28 00:19:09;;;;;;;8.10;3.80;;;2.90;99.90;;;;;;4979566;28;19918;-65
2021/03/28 00:21:49;;;;;;;11.88;4.43;;;2.80;99.90;;;;;;4978873;28;20406;-64
2021/03/28 00:24:27;;;;;;;14.98;4.47;;;2.70;99.90;;;;;;4977429;28;20034;-65
2021/03/28 00:27:09;;;;;;;12.00;4.38;;;2.60;99.90;;;;;;4978390;28;20111;-65
2021/03/28 00:29:49;;;;;;;13.90;4.03;;;2.70;99.90;;;;;;4980195;28;20026;-64
2021/03/28 00:32:40;;;;;;;9.95;3.88;;;2.60;99.90;;;;;;4976650;28;20414;-65
2021/03/28 00:35:11;;;;;;;10.18;4.32;;;2.70;99.90;;;;;;4977097;28;20529;-65
2021/03/28 00:37:38;;;;;;;10.25;4.10;;;2.70;99.90;;;;;;4979398;28;20081;-64
2021/03/28 00:40:09;;;;;;;12.02;3.88;;;2.80;99.90;;;;;;4979366;28;20038;-65
2021/03/28 00:42:48;;;;;;;13.95;4.95;;;2.80;99.90;;;;;;4978642;28;20550;-64
2021/03/28 00:45:34;;;;;;;11.65;3.97;;;2.80;99.90;;;;;;4974693;28;20294;-65
2021/03/28 00:48:13;;;;;;;12.65;4.32;;;2.80;99.90;;;;;;4976934;28;20057;-65
2021/03/28 00:51:07;;;;;;;17.10;5.28;;;2.90;99.90;;;;;;4974615;28;20395;-64
2021/03/28 00:53:50;;;;;;;13.45;4.53;;;2.80;99.90;;;;;;4976973;28;20110;-64
2021/03/28 00:56:42;;;;;;;11.25;3.85;;;2.90;99.90;;;;;;4957637;28;20070;-65
2021/03/28 00:59:30;;;;;;;10.20;4.32;;;2.90;99.90;;;;;;4971540;28;20035;-65
2021/03/28 01:02:20;;;;;;;19.33;4.63;;;2.90;99.90;;;;;;4978640;28;20491;-64
2021/03/28 01:05:15;;;;;;;15.73;4.50;;;2.90;99.90;;;;;;4977401;28;20034;-64
2021/03/28 01:07:43;;;;;;;17.50;4.68;;;2.90;99.90;;;;;;4958950;28;20050;-65
2021/03/28 01:10:33;;;;;;;15.77;4.38;;;2.90;99.90;;;;;;4977590;28;20030;-64
2021/03/28 01:13:24;;;;;;;14.60;4.20;;;3.00;99.90;;;;;;4978837;28;20031;-65
2021/03/28 01:16:33;;;;;;;13.65;4.78;;;2.90;99.90;;;;;;4975123;28;20034;-64
2021/03/28 01:19:23;;;;;;;13.77;4.35;;;3.00;99.90;;;;;;4909420;28;20076;-65
2021/03/28 01:22:15;;;;;;;19.58;6.28;;;3.00;99.90;;;;;;4973672;28;20023;-65
2021/03/28 01:25:13;;;;;;;15.57;4.78;;;3.00;99.90;;;;;;4938101;28;20057;-64
2021/03/28 01:28:11;;;;;;;17.77;5.57;;;3.10;99.90;;;;;;4976239;28;20030;-64
2021/03/28 01:30:48;;;;;;;14.13;5.03;;;3.10;99.90;;;;;;4966687;28;20247;-64
2021/03/28 01:33:29;;;;;;;14.93;5.35;;;3.20;99.90;;;;;;4977573;28;20026;-64
2021/03/28 01:35:54;;;;;;;18.63;5.43;;;3.20;99.90;;;;;;4976417;28;20038;-65
2021/03/28 01:38:31;;;;;;;15.65;4.78;;;3.10;99.90;;;;;;4961159;28;20487;-65
2021/03/28 01:41:10;;;;;;;12.85;4.05;;;3.10;99.90;;;;;;4978169;28;20042;-64
2021/03/28 01:43:49;;;;;;;18.23;5.20;;;3.00;99.90;;;;;;4978525;28;20064;-65
2021/03/28 01:46:36;;;;;;;13.25;4.68;;;3.00;99.90;;;;;;4976560;28;20042;-64
2021/03/28 01:49:39;;;;;;;18.10;5.57;;;3.00;99.90;;;;;;4976885;28;20065;-65
2021/03/28 01:52:26;;;;;;;14.90;4.60;;;3.00;99.90;;;;;;4976254;28;20034;-65
2021/03/28 01:55:15;;;;;;;18.92;5.43;;;3.00;99.90;;;;;;4977696;28;20037;-64
2021/03/28 01:57:58;;;;;;;16.88;5.30;;;3.00;99.90;;;;;;4977057;28;20026;-64
2021/03/28 02:00:44;;;;;;;16.20;4.13;;;3.00;99.90;;;;;;4977586;28;20026;-65
2021/03/28 02:03:42;;;;;;;17.33;4.82;;;2.90;99.90;;;;;;4959910;28;20038;-65
2021/03/28 02:06:32;;;;;;;15.77;4.57;;;2.90;99.90;;;;;;4975700;28;20038;-65
2021/03/28 02:09:07;;;;;;;19.48;4.80;;;2.90;99.90;;;;;;4977740;28;20030;-65
2021/03/28 02:12:07;;;;;;;19.65;4.43;;;2.90;99.90;;;;;;4976185;28;20831;-65
2021/03/28 02:14:42;;;;;;;19.52;4.72;;;2.90;99.90;;;;;;4978023;28;20038;-65
2021/03/28 02:17:30;;;;;;;11.23;3.65;;;2.90;99.90;;;;;;4974910;28;20031;-65
2021/03/28 02:20:23;;;;;;;14.85;4.68;;;2.80;99.90;;;;;;4975457;28;20141;-65
2021/03/28 02:22:54;;;;;;;16.40;4.75;;;2.70;99.90;;;;;;4976841;28;20030;-65
2021/03/28 02:25:35;;;;;;;13.15;4.65;;;2.60;99.90;;;;;;4971244;28;20031;-65
2021/03/28 02:28:35;;;;;;;13.90;4.45;;;2.60;99.90;;;;;;4975134;28;20061;-65
2021/03/28 02:31:24;;;;;;;18.27;4.88;;;2.60;99.90;;;;;;4976408;28;20030;-65
2021/03/28 02:34:04;;;;;;;15.63;4.80;;;2.60;99.90;;;;;;4965831;28;20038;-65
2021/03/28 02:36:40;;;;;;;20.02;4.78;;;2.50;99.90;;;;;;4974073;28;20041;-64
2021/03/28 02:39:14;;;;;;;19.77;5.50;;;2.50;99.90;;;;;;4976095;28;20034;-64
2021/03/28 02:41:51;;;;;;;17.40;5.88;;;2.40;99.90;;;;;;4976228;28;20644;-65
2021/03/28 02:44:23;;;;;;;13.10;4.85;;;2.50;99.90;;;;;;4976416;28;20057;-64
2021/03/28 02:46:56;;;;;;;17.35;5.65;;;2.40;99.90;;;;;;4956633;28;20038;-65
2021/03/28 02:49:40;;;;;;;14.23;4.10;;;2.40;99.90;;;;;;4974000;28;20030;-64
2021/03/28 02:52:15;;;;;;;7.72;4.03;;;2.30;99.90;;;;;;4975001;28;20061;-64
2021/03/28 02:54:56;;;;;;;13.75;4.18;;;2.30;99.90;;;;;;4976508;28;20034;-64
2021/03/28 02:57:35;;;;;;;21.33;5.47;;;2.30;99.90;;;;;;4973961;28;20034;-64
2021/03/28 03:00:19;;;;;;;16.00;4.60;;;2.30;99.90;;;;;;4975979;28;21043;-64
2021/03/28 03:03:05;;;;;;;21.98;5.03;;;2.30;99.90;;;;;;4975222;28;20875;-65
2021/03/28 03:06:11;;;;;;;11.60;4.05;;;2.30;99.90;;;;;;4971010;28;20052;-65
2021/03/28 03:08:44;;;;;;;14.43;4.70;;;2.20;99.90;;;;;;4974483;28;20209;-65
2021/03/28 03:11:39;;;;;;;13.70;4.20;;;2.10;99.90;;;;;;4972476;28;20040;-64
2021/03/28 03:14:24;;;;;;;12.73;3.92;;;2.10;99.90;;;;;;4974659;28;20026;-64
2021/03/28 03:16:56;;;;;;;14.45;4.53;;;2.10;99.90;;;;;;4972033;28;20030;-65
2021/03/28 03:19:58;;;;;;;17.70;4.93;;;2.20;99.90;;;;;;4967813;28;20035;-65
2021/03/28 03:23:15;;;;;;;17.17;4.78;;;2.20;99.90;;;;;;4974382;28;20045;-64
2021/03/28 03:25:56;;;;;;;;;;;2.20;99.90;;;;;;4973313;28;20042;-65
2021/03/28 03:29:00;;;;;;;17.27;4.65;;;2.20;99.90;;;;;;4975562;28;19996;-64
2021/03/28 03:31:51;;;;;;;25.00;5.22;;;2.20;99.90;;;;;;4951193;28;20034;-64
2021/03/28 03:34:29;;;;;;;18.73;5.45;;;2.10;99.90;;;;;;4972880;28;20044;-65
2021/03/28 03:37:13;;;;;;;15.48;4.25;;;2.10;99.90;;;;;;4972973;28;20045;-64
2021/03/28 03:40:29;;;;;;;13.40;4.43;;;2.00;99.90;;;;;;4966792;28;20031;-64
2021/03/28 03:42:55;;;;;;;13.40;4.90;;;2.10;99.90;;;;;;4975414;28;20037;-64
2021/03/28 03:45:50;;;;;;;19.63;5.35;;;2.10;99.90;;;;;;4956760;28;20042;-65
2021/03/28 03:48:20;;;;;;;19.20;5.78;;;2.00;99.90;;;;;;4974215;28;20538;-64
2021/03/28 03:51:21;;;;;;;17.63;5.32;;;2.10;99.90;;;;;;4972700;28;20039;-64
2021/03/28 03:54:06;;;;;;;14.45;4.95;;;2.10;99.90;;;;;;4974799;28;20124;-64
2021/03/28 03:56:44;;;;;;;13.20;4.80;;;2.10;99.90;;;;;;4959242;28;20091;-64
2021/03/28 03:59:35;;;;;;;12.00;4.68;;;2.00;99.90;;;;;;4972241;28;20509;-65
2021/03/28 04:02:36;;;;;;;16.50;5.10;;;2.10;99.90;;;;;;4972463;28;20090;-64
2021/03/28 04:05:23;;;;;;;13.15;5.85;;;1.90;99.90;;;;;;4956204;28;20113;-65
2021/03/28 04:08:09;;;;;;;16.13;4.97;;;1.80;99.90;;;;;;4974255;28;20026;-64
2021/03/28 04:10:41;;;;;;;13.43;4.93;;;1.90;99.90;;;;;;4948828;28;20053;-65
2021/03/28 04:13:28;;;;;;;12.38;4.68;;;1.70;99.90;;;;;;4965986;28;20697;-65
2021/03/28 04:16:18;;;;;;;24.55;5.82;;;1.70;99.90;;;;;;4975149;28;20066;-65
2021/03/28 04:18:59;;;;;;;18.02;5.97;;;1.60;99.90;;;;;;4956409;28;20042;-65
2021/03/28 04:21:44;;;;;;;13.32;5.30;;;1.70;99.90;;;;;;4975504;28;20042;-65
2021/03/28 04:24:21;;;;;;;17.00;5.25;;;1.60;99.90;;;;;;4972846;28;20045;-64
2021/03/28 04:27:32;;;;;;;22.13;6.93;;;1.60;99.90;;;;;;4974421;28;20042;-65
2021/03/28 04:29:58;;;;;;;19.40;5.43;;;1.60;99.90;;;;;;4971955;28;20082;-64
2021/03/28 04:32:52;;;;;;;13.73;5.03;;;1.60;99.90;;;;;;4964790;28;20038;-64
2021/03/28 04:35:30;;;;;;;14.48;5.13;;;1.60;99.90;;;;;;4964628;28;20134;-64
2021/03/28 04:38:24;;;;;;;15.80;6.10;;;1.50;99.90;;;;;;4973900;28;20394;-65
2021/03/28 04:40:55;;;;;;;15.40;6.10;;;1.50;99.90;;;;;;4973369;28;20150;-65
2021/03/28 04:43:42;;;;;;;16.67;5.50;;;1.40;99.90;;;;;;4975318;28;20678;-65
2021/03/28 04:46:31;;;;;;;13.40;5.40;;;1.30;99.90;;;;;;4975915;28;20034;-66
2021/03/28 04:49:29;;;;;;;20.08;6.35;;;1.30;99.90;;;;;;4942268;28;20499;-65
2021/03/28 04:52:41;;;;;;;18.02;6.40;;;1.40;99.90;;;;;;4978329;28;20034;-66
2021/03/28 04:55:44;;;;;;;16.67;6.25;;;1.50;99.90;;;;;;4975339;28;20073;-65
2021/03/28 04:58:28;;;;;;;19.33;6.95;;;1.50;99.90;;;;;;4976225;28;20031;-65
2021/03/28 05:01:00;;;;;;;17.83;7.40;;;1.50;99.90;;;;;;4979207;28;20044;-65
2021/03/28 05:03:52;;;;;;;83.47;36.95;;;1.60;99.90;;;;;;4976044;28;20474;-65
2021/03/28 05:06:45;;;;;;;16.77;7.07;;;1.60;99.90;;;;;;4976463;28;20038;-65
2021/03/28 05:09:48;;;;;;;15.60;6.05;;;1.60;99.90;;;;;;4978107;28;20806;-65
2021/03/28 05:12:51;;;;;;;18.38;6.20;;;1.60;99.90;;;;;;4978423;28;20113;-65
2021/03/28 05:15:52;;;;;;;15.68;5.63;;;1.70;99.90;;;;;;4975455;28;20042;-65
2021/03/28 05:18:49;;;;;;;19.67;6.72;;;1.70;99.90;;;;;;4952301;28;20050;-65
2021/03/28 05:21:53;;;;;;;15.98;6.13;;;1.70;99.90;;;;;;4978373;28;20023;-66
2021/03/28 05:24:55;;;;;;;18.77;5.90;;;1.60;99.90;;;;;;4977522;28;20699;-65
2021/03/28 05:28:05;;;;;;;12.60;6.00;;;1.70;99.90;;;;;;4978357;28;20318;-65
2021/03/28 05:30:49;;;;;;;15.02;6.65;;;1.80;99.90;;;;;;4977598;28;20030;-66
2021/03/28 05:33:40;;;;;;;20.02;6.13;;;1.90;99.90;;;;;;4975915;28;20041;-65
2021/03/28 05:36:19;;;;;;;15.98;5.97;;;1.90;99.90;;;;;;4976563;28;20030;-65
2021/03/28 05:39:09;;;;;;;16.13;6.20;;;2.10;99.90;;;;;;4975969;28;20045;-65
2021/03/28 05:42:10;;;;;;;17.73;6.05;;;2.20;99.90;;;;;;4977508;28;20027;-65
2021/03/28 05:45:00;;;;;;;13.90;6.50;;;2.20;99.90;;;;;;4924056;28;20151;-66
2021/03/28 05:48:10;;;;;;;16.60;5.90;;;2.30;99.90;;;;;;4974724;28;20042;-66
2021/03/28 05:51:00;;;;;;;18.65;6.53;;;2.30;99.90;;;;;;4941709;28;20557;-66
2021/03/28 05:54:03;;;;;;;13.77;5.97;;;2.50;99.90;;;;;;4971829;28;20122;-65
2021/03/28 05:57:07;;;;;;;14.98;5.60;;;2.50;99.90;;;;;;4975159;28;20130;-66
2021/03/28 06:00:15;;;;;;;22.70;6.10;;;2.70;99.90;;;;;;4976675;28;20170;-65
2021/03/28 06:03:32;;;;;;;14.93;6.30;;;2.80;99.90;;;;;;4973669;28;20038;-66
2021/03/28 06:06:12;;;;;;;21.52;6.80;;;2.90;99.90;;;;;;4953191;28;20183;-67
2021/03/28 06:09:16;;;;;;;54.40;21.30;;;3.00;99.90;;;;;;4974842;28;20743;-67
2021/03/28 06:12:08;;;;;;;12.50;5.28;;;3.10;99.90;;;;;;4976295;28;20073;-66
2021/03/28 06:14:50;;;;;;;14.40;5.45;;;3.30;99.90;;;;;;4975901;28;20030;-66
2021/03/28 06:17:24;;;;;;;19.35;6.05;;;3.30;99.90;;;;;;4974643;28;20042;-66
2021/03/28 06:20:11;;;;;;;12.00;4.95;;;3.40;99.90;;;;;;4976705;28;20066;-66
2021/03/28 06:23:06;;;;;;;13.98;5.22;;;3.60;99.90;;;;;;4974921;28;21036;-66
2021/03/28 06:26:09;;;;;;;19.23;5.13;;;3.70;99.90;;;;;;4956453;28;20035;-66
2021/03/28 06:28:52;;;;;;;18.83;5.97;;;3.90;99.90;;;;;;4975998;28;20438;-66
2021/03/28 06:31:40;;;;;;;15.02;5.25;;;3.80;99.90;;;;;;4974344;28;20531;-66
2021/03/28 06:34:43;;;;;;;17.15;5.57;;;3.80;99.90;;;;;;4972382;28;20031;-66
2021/03/28 06:37:14;;;;;;;17.70;5.70;;;3.90;99.90;;;;;;4974210;28;20045;-66
2021/03/28 06:40:02;;;;;;;13.85;5.07;;;4.10;99.90;;;;;;4948097;28;20053;-66
2021/03/28 06:42:52;;;;;;;15.55;5.00;;;4.10;99.90;;;;;;4976901;28;20685;-66
2021/03/28 06:45:30;;;;;;;12.80;4.75;;;4.10;99.90;;;;;;4975079;28;20133;-66
2021/03/28 06:48:26;;;;;;;15.40;4.75;;;4.30;99.90;;;;;;4976987;28;20034;-66
2021/03/28 06:51:05;;;;;;;17.10;4.68;;;4.50;99.90;;;;;;4953384;28;20065;-66
2021/03/28 06:53:59;;;;;;;76.45;28.50;;;4.60;99.90;;;;;;4976265;28;20765;-65
2021/03/28 06:56:49;;;;;;;10.93;4.63;;;4.70;99.90;;;;;;4974821;28;20085;-66
2021/03/28 06:59:20;;;;;;;20.13;5.03;;;4.90;99.90;;;;;;4974915;28;20045;-66
2021/03/28 07:01:46;;;;;;;11.77;4.07;;;5.10;99.90;;;;;;4966509;28;20593;-65
2021/03/28 07:04:40;;;;;;;10.52;4.22;;;5.20;99.90;;;;;;4971108;28;20046;-66
2021/03/28 07:07:19;;;;;;;10.68;3.85;;;5.30;99.90;;;;;;4972600;28;20117;-66
2021/03/28 07:10:01;;;;;;;12.25;3.88;;;5.30;99.90;;;;;;4972923;28;20150;-65
2021/03/28 07:12:46;;;;;;;11.95;4.30;;;5.50;99.90;;;;;;4974591;28;20045;-64
2021/03/28 07:15:29;;;;;;;15.38;4.60;;;5.60;99.90;;;;;;4955945;28;20550;-65
2021/03/28 07:18:32;;;;;;;16.00;4.32;;;5.60;99.90;;;;;;4974307;28;20038;-65
2021/03/28 07:21:24;;;;;;;10.68;3.65;;;5.80;99.90;;;;;;4973025;28;20375;-65
2021/03/28 07:24:24;;;;;;;13.88;4.15;;;5.90;99.90;;;;;;4951465;28;20045;-66
2021/03/28 07:26:52;;;;;;;15.60;3.60;;;6.10;99.90;;;;;;4973098;28;20057;-65
2021/03/28 07:29:30;;;;;;;12.93;3.47;;;6.20;99.90;;;;;;4971797;28;20054;-66
2021/03/28 07:32:08;;;;;;;14.55;3.60;;;6.40;99.90;;;;;;4947016;28;20517;-66
2021/03/28 07:35:25;;;;;;;13.40;4.10;;;6.50;99.90;;;;;;5042354;27;20463;-65
2021/03/28 07:38:28;;;;;;;10.10;3.45;;;6.70;99.90;;;;;;5021475;28;20033;-66
2021/03/28 07:41:25;;;;;;;9.23;3.15;;;6.80;99.90;;;;;;5022152;28;20021;-66
2021/03/28 07:44:18;;;;;;;14.95;3.55;;;6.90;99.90;;;;;;5011322;28;20109;-66
2021/03/28 07:47:20;;;;;;;10.50;3.47;;;7.00;99.90;;;;;;5029522;28;20065;-66
2021/03/28 07:50:10;;;;;;;6.30;3.22;;;7.10;99.90;;;;;;5026892;28;20041;-65
2021/03/28 07:52:48;;;;;;;10.60;3.47;;;7.30;99.90;;;;;;5021646;28;20666;-65
2021/03/28 07:55:27;;;;;;;12.75;3.70;;;7.10;99.90;;;;;;5016922;28;20036;-65
2021/03/28 07:58:18;;;;;;;11.07;3.40;;;7.20;99.90;;;;;;5026352;28;20385;-65
2021/03/28 08:01:05;;;;;;;13.57;3.10;;;7.30;99.90;;;;;;5029655;28;20439;-65
2021/03/28 08:04:02;;;;;;;15.98;4.65;;;7.30;99.90;;;;;;5027283;28;20043;-65
2021/03/28 08:07:03;;;;;;;11.38;3.13;;;7.30;99.90;;;;;;5018843;28;20264;-65
2021/03/28 08:09:38;;;;;;;11.13;3.95;;;7.30;99.90;;;;;;5018003;28;20041;-65
2021/03/28 08:12:33;;;;;;;11.20;3.05;;;7.20;99.90;;;;;;5017443;28;20053;-65
2021/03/28 08:15:18;;;;;;;10.57;3.22;;;7.30;99.90;;;;;;5026568;28;20041;-66
2021/03/28 08:18:12;;;;;;;12.65;3.25;;;7.40;99.90;;;;;;5027875;28;20049;-66
2021/03/28 08:20:59;;;;;;;7.75;2.95;;;7.60;99.90;;;;;;5011442;28;20180;-66
2021/03/28 08:23:44;;;;;;;16.48;3.13;;;7.80;99.90;;;;;;5012725;28;20037;-66
2021/03/28 08:26:29;;;;;;;9.35;2.67;;;8.00;99.90;;;;;;5019526;28;20060;-66
2021/03/28 08:29:23;;;;;;;14.63;2.33;;;8.00;99.90;;;;;;5025638;28;20095;-66
2021/03/28 08:32:12;;;;;;;12.13;3.17;;;8.20;99.90;;;;;;5016423;28;20706;-65
2021/03/28 08:35:00;;;;;;;13.38;2.97;;;8.30;99.90;;;;;;5034129;28;20037;-66
2021/03/28 08:37:38;;;;;;;11.05;4.03;;;8.30;99.90;;;;;;5016564;28;20068;-65
2021/03/28 08:40:44;;;;;;;7.38;2.55;;;8.40;99.90;;;;;;5018554;28;20034;-65
2021/03/28 08:43:30;;;;;;;12.75;2.78;;;8.70;99.70;;;;;;5017107;28;20131;-65
2021/03/28 08:46:11;;;;;;;12.65;2.92;;;8.80;99.10;;;;;;4999023;28;20052;-65
2021/03/28 08:49:14;;;;;;;8.45;2.72;;;9.00;98.80;;;;;;5011291;28;20041;-64
2021/03/28 08:52:09;;;;;;;12.18;2.83;;;9.20;99.20;;;;;;4999887;28;20085;-65
2021/03/28 08:54:57;;;;;;;9.35;3.10;;;9.20;98.80;;;;;;5021778;28;20035;-65
2021/03/28 08:57:39;;;;;;;16.08;3.15;;;9.50;97.90;;;;;;4999270;28;20030;-65
2021/03/28 09:00:16;;;;;;;9.77;2.60;;;9.40;97.90;;;;;;4998146;28;20063;-65
2021/03/28 09:03:04;;;;;;;11.07;3.30;;;9.30;98.20;;;;;;5002276;28;20041;-65
2021/03/28 09:05:30;;;;;;;16.63;7.85;;;9.60;98.30;;;;;;5007356;28;20031;-65
2021/03/28 09:08:16;;;;;;;13.73;2.78;;;9.90;98.30;;;;;;5003479;28;20037;-65
2021/03/28 09:11:05;;;;;;;13.32;2.95;;;10.20;97.30;;;;;;4996517;28;20565;-65
2021/03/28 09:14:03;;;;;;;17.40;3.40;;;10.40;95.50;;;;;;5005668;28;20155;-65
2021/03/28 09:16:41;;;;;;;7.65;2.72;;;10.70;94.30;;;;;;4994544;28;20120;-65
2021/03/28 09:19:17;;;;;;;8.80;2.88;;;10.30;94.00;;;;;;4995017;28;20130;-65
2021/03/28 09:22:25;;;;;;;9.43;3.13;;;9.90;95.60;;;;;;5014016;28;20037;-65
2021/03/28 09:25:03;;;;;;;18.77;5.53;;;9.80;96.90;;;;;;5007633;28;20059;-65
2021/03/28 09:27:34;;;;;;;14.10;4.00;;;10.00;95.40;;;;;;4997130;28;20056;-65
2021/03/28 09:30:17;;;;;;;38.70;10.20;;;10.00;95.50;;;;;;4994648;28;20043;-65
2021/03/28 09:33:04;;;;;;;13.13;3.85;;;9.80;96.30;;;;;;5007272;28;20038;-65
2021/03/28 09:35:36;;;;;;;12.02;4.38;;;9.80;96.80;;;;;;5020122;28;20038;-65
2021/03/28 09:38:05;;;;;;;10.02;3.40;;;10.30;96.10;;;;;;5000439;28;20052;-65
2021/03/28 09:41:12;;;;;;;18.60;4.55;;;10.20;95.00;;;;;;4994809;28;20509;-65
2021/03/28 09:43:52;;;;;;;16.40;9.20;;;10.20;97.10;;;;;;4985950;28;20052;-65
2021/03/28 09:46:33;;;;;;;16.25;3.97;;;10.70;96.40;;;;;;5003714;28;20493;-65
2021/03/28 09:49:22;;;;;;;11.85;3.75;;;10.60;94.30;;;;;;4997357;28;20568;-65
2021/03/28 09:52:17;;;;;;;11.93;4.65;;;10.70;93.60;;;;;;4999220;28;20057;-66
2021/03/28 09:55:12;;;;;;;11.45;3.72;;;11.10;94.50;;;;;;5005753;28;20800;-65
2021/03/28 09:58:12;;;;;;;14.30;3.67;;;11.20;94.20;;;;;;5001353;28;20033;-65
2021/03/28 10:00:46;;;;;;;13.77;4.30;;;11.60;94.40;;;;;;5003726;28;20026;-65
2021/03/28 10:03:17;;;;;;;12.35;3.63;;;11.50;93.60;;;;;;5000614;28;20771;-65
2021/03/28 10:05:45;;;;;;;16.35;4.45;;;11.40;94.50;;;;;;4999833;28;20075;-65
2021/03/28 10:08:16;;;;;;;12.80;3.63;;;11.10;95.20;;;;;;5001216;28;20689;-65
2021/03/28 10:11:01;;;;;;;14.50;4.45;;;11.50;96.90;;;;;;5004060;28;20034;-66
2021/03/28 10:13:27;;;;;;;;;;;11.80;95.40;;;;;;5006322;28;20083;-66
2021/03/28 10:15:58;;;;;;;13.35;3.70;;;12.10;94.90;;;;;;5015714;28;20414;-65
2021/03/28 10:18:43;;;;;;;13.10;4.47;;;11.60;93.40;;;;;;4997822;28;20485;-65
2021/03/28 10:21:24;;;;;;;13.20;4.13;;;11.70;95.20;;;;;;4995154;28;20045;-65
2021/03/28 10:24:20;;;;;;;11.57;3.47;;;12.10;94.60;;;;;;5001555;28;20029;-67
2021/03/28 10:27:15;;;;;;;8.15;4.03;;;12.30;92.90;;;;;;5002266;28;20030;-67
2021/03/28 10:29:44;;;;;;;14.75;5.50;;;12.10;95.60;;;;;;5003351;28;20033;-65
2021/03/28 10:32:30;;;;;;;11.63;3.88;;;12.50;94.70;;;;;;5014273;28;20033;-65
2021/03/28 10:35:01;;;;;;;17.33;5.10;;;12.80;93.20;;;;;;4999515;28;20033;-65
2021/03/28 10:37:30;;;;;;;16.25;3.95;;;12.80;93.40;;;;;;5005527;28;20026;-65
2021/03/28 10:40:25;;;;;;;7.53;2.80;;;12.70;88.60;;;;;;5003581;28;20029;-65
2021/03/28 10:43:29;;;;;;;9.70;2.40;;;13.10;90.70;;;;;;5013055;28;20309;-65
2021/03/28 10:46:24;;;;;;;10.30;3.28;;;13.70;84.50;;;;;;4999853;28;20038;-65
2021/03/28 10:49:28;;;;;;;12.57;2.97;;;13.70;76.30;;;;;;5009316;28;20037;-65
2021/03/28 10:52:03;;;;;;;8.23;2.80;;;13.50;79.90;;;;;;5007473;28;20088;-66
2021/03/28 10:54:50;;;;;;;8.40;2.95;;;14.10;79.90;;;;;;5006364;28;20053;-66
2021/03/28 10:57:44;;;;;;;10.20;3.00;;;14.20;76.80;;;;;;5006341;28;20066;-66
2021/03/28 11:00:25;;;;;;;9.52;2.72;;;14.30;75.50;;;;;;5007381;28;20128;-66
2021/03/28 11:03:18;;;;;;;11.32;2.88;;;14.10;75.50;;;;;;5012799;28;20132;-65
2021/03/28 11:06:38;;;;;;;16.83;2.50;;;13.90;73.00;;;;;;5008648;28;20029;-65
2021/03/28 11:09:15;;;;;;;15.45;3.10;;;13.40;76.90;;;;;;5002166;28;20057;-65
2021/03/28 11:12:07;;;;;;;11.10;3.22;;;13.10;83.70;;;;;;5005596;28;20050;-66
2021/03/28 11:14:40;;;;;;;20.45;3.50;;;12.90;88.80;;;;;;5004987;28;20045;-65
2021/03/28 11:17:48;;;;;;;10.05;2.20;;;12.80;88.40;;;;;;4999972;28;20018;-67
2021/03/28 11:20:22;;;;;;;11.65;3.78;;;13.00;88.00;;;;;;4999844;28;20141;-67
2021/03/28 11:23:11;;;;;;;11.07;3.28;;;13.00;80.50;;;;;;5005745;28;20492;-66
2021/03/28 11:25:56;;;;;;;6.25;1.60;;;12.80;80.40;;;;;;5007088;28;20045;-66
2021/03/28 11:28:39;;;;;;;6.90;2.00;;;12.50;80.30;;;;;;5002427;28;20485;-66
2021/03/28 11:31:29;;;;;;;11.43;2.22;;;12.30;90.00;;;;;;5002774;28;20088;-67
2021/03/28 11:34:13;;;;;;;6.65;1.70;;;12.50;86.30;;;;;;5003365;28;20041;-67
2021/03/28 11:36:59;;;;;;;6.55;1.98;;;12.70;85.80;;;;;;5001564;28;20041;-67
2021/03/28 11:39:28;;;;;;;5.57;1.40;;;12.50;88.80;;;;;;5005700;28;20671;-66
2021/03/28 11:42:20;;;;;;;8.23;1.98;;;12.10;91.00;;;;;;5007444;28;20030;-65
2021/03/28 11:45:02;;;;;;;18.08;5.15;;;12.20;91.20;;;;;;5005322;28;20127;-65
2021/03/28 11:47:31;;;;;;;15.95;1.90;;;12.30;92.00;;;;;;5001901;28;20034;-65
2021/03/28 11:50:05;;;;;;;12.25;2.60;;;12.50;92.10;;;;;;5000988;28;20505;-65
2021/03/28 11:52:49;;;;;;;14.03;2.73;;;12.70;92.00;;;;;;4999383;28;20088;-65
2021/03/28 11:55:38;;;;;;;7.25;1.80;;;12.80;91.50;;;;;;5023971;28;20041;-66
2021/03/28 11:58:12;;;;;;;11.45;2.35;;;12.70;90.90;;;;;;5007343;28;20033;-66
2021/03/28 12:00:40;;;;;;;9.27;1.83;;;12.60;92.00;;;;;;5021028;28;20720;-66
2021/03/28 12:03:23;;;;;;;13.90;2.53;;;12.70;92.00;;;;;;5017590;28;20079;-67
2021/03/28 12:06:00;;;;;;;11.45;2.67;;;12.90;92.70;;;;;;5011356;28;20086;-66
2021/03/28 12:08:56;;;;;;;8.85;1.63;;;12.70;92.30;;;;;;5010861;28;20118;-66
2021/03/28 12:11:48;;;;;;;6.10;1.85;;;12.80;93.20;;;;;;5007681;28;20038;-66
2021/03/28 12:14:17;;;;;;;9.27;2.28;;;13.10;91.90;;;;;;5013682;28;20081;-66
2021/03/28 12:17:10;;;;;;;10.82;1.98;;;13.10;92.50;;;;;;5015421;28;20037;-66
2021/03/28 12:20:06;;;;;;;9.02;2.08;;;13.30;92.70;;;;;;5011962;28;20117;-66
2021/03/28 12:22:38;;;;;;;7.20;1.65;;;12.80;94.20;;;;;;5019075;28;20497;-66
2021/03/28 12:25:19;;;;;;;7.00;2.10;;;12.40;94.60;;;;;;5020785;28;20113;-66
2021/03/28 12:28:06;;;;;;;17.63;2.58;;;12.10;95.70;;;;;;5028057;28;20040;-66
2021/03/28 12:30:41;;;;;;;10.73;2.63;;;12.30;95.50;;;;;;5017602;28;20515;-66
2021/03/28 12:33:14;;;;;;;12.20;2.10;;;12.30;95.50;;;;;;5025068;28;20564;-66
2021/03/28 12:35:39;;;;;;;9.05;2.45;;;12.30;96.00;;;;;;5019374;28;20035;-66
2021/03/28 12:38:27;;;;;;;9.77;1.75;;;12.50;95.30;;;;;;5004429;28;20037;-66
2021/03/28 12:41:12;;;;;;;9.30;2.13;;;12.90;94.80;;;;;;5013738;28;20072;-66
2021/03/28 12:43:44;;;;;;;9.27;1.85;;;13.20;93.70;;;;;;5024911;28;20034;-66
2021/03/28 12:46:48;;;;;;;14.00;2.78;;;13.40;92.80;;;;;;5026737;28;20059;-66
2021/03/28 12:49:45;;;;;;;9.30;1.55;;;13.30;93.30;;;;;;5021363;28;20492;-66
2021/03/28 12:52:10;;;;;;;8.85;2.00;;;13.20;92.70;;;;;;5019032;28;20088;-66
2021/03/28 12:54:51;;;;;;;10.45;2.10;;;13.20;94.00;;;;;;5008995;28;20572;-66
2021/03/28 12:57:43;;;;;;;8.63;2.28;;;13.40;93.70;;;;;;5009471;28;20495;-66
2021/03/28 13:00:49;;;;;;;7.30;2.40;;;13.30;94.90;;;;;;5006999;28;20038;-66
2021/03/28 13:03:32;;;;;;;10.52;2.83;;;13.10;95.00;;;;;;5004642;28;20089;-66
2021/03/28 13:06:18;;;;;;;9.43;3.13;;;12.50;95.70;;;;;;5004000;28;20080;-65
2021/03/28 13:08:58;;;;;;;;;;;12.00;97.10;;;;;;5004607;28;20095;-64
2021/03/28 13:11:36;;;;;;;15.85;4.72;;;12.30;97.20;;;;;;5022597;28;20391;-65
2021/03/28 13:14:04;;;;;;;14.50;4.00;;;12.60;96.30;;;;;;5002945;28;20073;-65
2021/03/28 13:16:33;;;;;;;9.75;2.13;;;12.60;95.80;;;;;;5000479;28;20813;-65
2021/03/28 13:19:00;;;;;;;13.68;2.80;;;12.70;96.30;;;;;;5001728;28;20663;-65
2021/03/28 13:21:33;;;;;;;8.82;2.92;;;12.90;96.20;;;;;;4999422;28;20136;-65
2021/03/28 13:24:04;;;;;;;15.63;3.42;;;13.30;95.10;;;;;;5013874;28;20775;-64
2021/03/28 13:26:34;;;;;;;10.18;2.30;;;13.30;94.30;;;;;;5011391;28;20505;-69
2021/03/28 13:29:21;;;;;;;11.75;2.58;;;13.50;94.40;;;;;;4996116;28;20045;-65
2021/03/28 13:31:55;;;;;;;12.18;5.25;;;13.80;92.50;;;;;;5004196;28;20545;-65
2021/03/28 13:34:27;;;;;;;13.85;2.50;;;13.60;93.80;;;;;;5012436;28;20823;-65
2021/03/28 13:37:05;;;;;;;10.43;3.30;;;13.70;94.70;;;;;;5006498;28;20034;-66
2021/03/28 13:39:42;;;;;;;9.63;2.63;;;13.80;94.30;;;;;;5009437;28;20033;-65
2021/03/28 13:42:21;;;;;;;13.50;2.90;;;13.70;93.80;;;;;;5004151;28;20049;-65
2021/03/28 13:44:49;;;;;;;9.68;2.60;;;13.30;95.20;;;;;;5010251;28;20052;-65
2021/03/28 13:47:15;;;;;;;7.53;2.42;;;13.30;94.50;;;;;;5007304;28;20489;-65
2021/03/28 13:49:50;;;;;;;8.75;2.50;;;13.00;94.70;;;;;;5006423;28;20060;-65
2021/03/28 13:52:25;;;;;;;7.97;2.47;;;13.20;95.80;;;;;;5003317;28;20042;-65
2021/03/28 13:55:13;;;;;;;10.32;2.45;;;13.10;95.10;;;;;;5007290;28;20079;-65
2021/03/28 13:57:41;;;;;;;8.38;2.45;;;13.40;94.40;;;;;;5009548;28;20112;-65
2021/03/28 14:00:19;;;;;;;11.60;2.90;;;13.30;95.80;;;;;;5013407;28;20163;-66
2021/03/28 14:02:48;;;;;;;10.60;2.60;;;13.60;94.10;;;;;;5018163;28;20409;-65
2021/03/28 14:05:17;;;;;;;8.95;2.95;;;13.80;94.60;;;;;;5005246;28;20029;-65
2021/03/28 14:07:42;;;;;;;7.88;3.03;;;13.80;94.30;;;;;;5004602;28;20053;-65
2021/03/28 14:10:16;;;;;;;11.55;3.15;;;13.40;95.20;;;;;;5009939;28;20042;-65
2021/03/28 14:13:04;;;;;;;13.30;3.78;;;13.50;95.20;;;;;;5004170;28;20108;-65
2021/03/28 14:15:53;;;;;;;9.63;2.42;;;14.30;93.60;;;;;;5002977;28;20482;-65
2021/03/28 14:18:24;;;;;;;8.55;2.88;;;14.70;92.60;;;;;;5018904;28;20112;-65